createdAt,value
2018-01-29T00:00:54.041Z,77.58
2018-01-29T00:06:03.548Z,77.51
2018-01-29T00:08:31.045Z,77.48
2018-01-29T00:10:58.605Z,77.52
2018-01-29T00:13:26.172Z,77.62
2018-01-29T00:15:53.650Z,77.61
2018-01-29T00:18:21.726Z,77.69
2018-01-29T00:20:49.244Z,77.77
2018-01-29T00:23:18.683Z,77.92
2018-01-29T00:25:46.216Z,77.94
2018-01-29T00:28:13.695Z,77.94
2018-01-29T00:30:41.227Z,77.85
2018-01-29T00:33:08.784Z,78.00
2018-01-29T00:35:37.238Z,77.95
2018-01-29T00:38:05.739Z,77.81
2018-01-29T00:40:33.234Z,77.74
2018-01-29T00:43:00.713Z,77.83
2018-01-29T00:45:28.224Z,77.97
2018-01-29T00:47:55.901Z,77.90
2018-01-29T00:50:23.446Z,77.92
2018-01-29T00:52:51.001Z,77.96
2018-01-29T00:55:18.544Z,77.83
2018-01-29T00:57:46.114Z,77.85
2018-01-29T01:00:13.578Z,77.67
2018-01-29T01:02:41.036Z,77.71
2018-01-29T01:05:08.523Z,77.84
2018-01-29T01:07:36.717Z,77.88
2018-01-29T01:10:04.438Z,77.81
2018-01-29T01:12:32.039Z,77.85
2018-01-29T01:14:59.603Z,77.80
2018-01-29T01:17:27.166Z,77.86
2018-01-29T01:19:55.080Z,77.85
2018-01-29T01:22:22.606Z,77.75
2018-01-29T01:24:50.173Z,77.79
2018-01-29T01:27:17.803Z,77.79
2018-01-29T01:29:45.451Z,77.91
2018-01-29T01:32:12.997Z,77.84
2018-01-29T01:34:40.547Z,77.73
2018-01-29T01:37:08.111Z,77.74
2018-01-29T01:39:35.603Z,77.78
2018-01-29T01:42:03.201Z,77.81
2018-01-29T01:44:30.673Z,77.83
2018-01-29T01:46:58.150Z,77.89
2018-01-29T01:49:32.188Z,77.92
2018-01-29T01:51:59.664Z,77.88
2018-01-29T01:54:27.143Z,77.89
2018-01-29T01:56:54.619Z,77.88
2018-01-29T01:59:22.118Z,77.99
2018-01-29T02:01:49.608Z,77.95
2018-01-29T02:04:17.152Z,77.95
2018-01-29T02:06:44.680Z,77.99
2018-01-29T02:09:13.093Z,78.00
2018-01-29T02:11:41.579Z,78.05
2018-01-29T02:14:09.082Z,78.11
2018-01-29T02:16:36.643Z,78.05
2018-01-29T02:19:04.110Z,78.08
2018-01-29T02:21:31.583Z,78.15
2018-01-29T02:23:59.058Z,78.25
2018-01-29T02:26:26.541Z,78.35
2018-01-29T02:28:54.012Z,78.44
2018-01-29T02:31:21.516Z,78.36
2018-01-29T02:33:49.002Z,78.47
2018-01-29T02:36:16.501Z,78.54
2018-01-29T02:38:44.065Z,78.46
2018-01-29T02:41:11.567Z,78.57
2018-01-29T02:43:39.045Z,78.67
2018-01-29T02:46:06.537Z,78.54
2018-01-29T02:48:34.387Z,78.57
2018-01-29T02:51:01.842Z,78.63
2018-01-29T02:53:29.954Z,78.73
2018-01-29T02:55:57.476Z,78.67
2018-01-29T02:58:24.931Z,78.69
2018-01-29T03:00:52.415Z,78.67
2018-01-29T03:03:19.878Z,78.75
2018-01-29T03:05:47.425Z,78.75
2018-01-29T03:08:14.968Z,78.72
2018-01-29T03:10:42.572Z,78.69
2018-01-29T03:13:10.063Z,78.71
2018-01-29T03:15:37.670Z,78.52
2018-01-29T03:18:05.151Z,78.49
2018-01-29T03:20:32.664Z,78.45
2018-01-29T03:23:00.112Z,78.58
2018-01-29T03:25:27.781Z,78.47
2018-01-29T03:27:56.175Z,78.42
2018-01-29T03:30:24.598Z,78.43
2018-01-29T03:32:52.083Z,78.31
2018-01-29T03:35:19.599Z,78.46
2018-01-29T03:37:47.079Z,78.33
2018-01-29T03:40:14.876Z,78.45
2018-01-29T03:42:42.429Z,78.44
2018-01-29T03:45:09.861Z,78.42
2018-01-29T03:47:37.326Z,78.30
2018-01-29T03:50:04.792Z,78.33
2018-01-29T03:52:33.197Z,78.48
2018-01-29T03:55:01.560Z,78.46
2018-01-29T03:57:29.068Z,78.44
2018-01-29T03:59:57.419Z,78.41
2018-01-29T04:02:24.866Z,78.36
2018-01-29T04:04:52.346Z,78.31
2018-01-29T04:07:19.840Z,78.35
2018-01-29T04:09:47.358Z,78.31
2018-01-29T04:12:14.886Z,78.45
2018-01-29T04:14:42.427Z,78.33
2018-01-29T04:17:09.979Z,78.20
2018-01-29T04:19:37.557Z,78.01
2018-01-29T04:22:05.139Z,77.85
2018-01-29T04:24:32.591Z,77.88
2018-01-29T04:27:00.096Z,77.83
2018-01-29T04:29:27.547Z,77.76
2018-01-29T04:31:55.037Z,77.59
2018-01-29T04:34:41.750Z,77.58
2018-01-29T04:37:09.674Z,77.57
2018-01-29T04:39:37.166Z,77.64
2018-01-29T04:42:04.628Z,77.69
2018-01-29T04:44:32.086Z,77.70
2018-01-29T04:47:00.413Z,77.49
2018-01-29T04:49:27.957Z,77.42
2018-01-29T04:51:55.424Z,77.31
2018-01-29T04:54:22.969Z,77.27
2018-01-29T04:56:50.428Z,77.12
2018-01-29T04:59:17.954Z,77.19
2018-01-29T05:01:45.463Z,77.15
2018-01-29T05:04:12.998Z,77.25
2018-01-29T05:06:40.484Z,77.23
2018-01-29T05:09:08.022Z,77.00
2018-01-29T05:11:35.598Z,77.12
2018-01-29T05:14:03.818Z,77.12
2018-01-29T05:16:31.303Z,76.92
2018-01-29T05:18:58.847Z,76.93
2018-01-29T05:21:26.319Z,76.83
2018-01-29T05:23:53.789Z,77.08
2018-01-29T05:26:21.266Z,77.10
2018-01-29T05:28:48.790Z,77.07
2018-01-29T05:31:16.226Z,77.01
2018-01-29T05:33:43.822Z,77.04
2018-01-29T05:36:11.347Z,76.92
2018-01-29T05:38:38.845Z,76.92
2018-01-29T05:41:06.316Z,76.75
2018-01-29T05:43:33.851Z,76.85
2018-01-29T05:46:01.404Z,76.85
2018-01-29T05:48:28.905Z,76.93
2018-01-29T05:50:56.422Z,76.68
2018-01-29T05:53:23.891Z,76.66
2018-01-29T05:55:51.438Z,76.56
2018-01-29T05:58:18.966Z,76.62
2018-01-29T06:00:46.462Z,76.34
2018-01-29T06:03:14.000Z,76.45
2018-01-29T06:05:41.610Z,76.50
2018-01-29T06:08:09.145Z,76.52
2018-01-29T06:10:36.774Z,76.55
2018-01-29T06:13:04.326Z,76.42
2018-01-29T06:15:31.785Z,76.30
2018-01-29T06:17:59.290Z,76.18
2018-01-29T06:20:26.805Z,76.23
2018-01-29T06:22:54.305Z,76.04
2018-01-29T06:25:21.768Z,75.76
2018-01-29T06:27:49.242Z,75.79
2018-01-29T06:30:16.975Z,75.75
2018-01-29T06:32:44.488Z,75.63
2018-01-29T06:35:11.988Z,75.50
2018-01-29T06:37:40.670Z,75.67
2018-01-29T06:40:09.047Z,75.66
2018-01-29T06:42:36.509Z,75.62
2018-01-29T06:45:03.982Z,75.26
2018-01-29T06:47:32.143Z,75.29
2018-01-29T06:49:59.671Z,75.33
2018-01-29T06:52:27.346Z,75.34
2018-01-29T06:54:54.829Z,75.44
2018-01-29T06:57:22.417Z,75.31
2018-01-29T06:59:49.908Z,75.21
2018-01-29T07:02:18.063Z,75.03
2018-01-29T07:04:45.599Z,75.20
2018-01-29T07:07:13.188Z,75.23
2018-01-29T07:09:40.725Z,75.21
2018-01-29T07:12:08.324Z,75.28
2018-01-29T07:14:35.840Z,75.00
2018-01-29T07:17:03.376Z,75.22
2018-01-29T07:19:30.974Z,75.08
2018-01-29T07:21:58.515Z,75.13
2018-01-29T07:24:26.666Z,75.25
2018-01-29T07:26:54.220Z,75.24
2018-01-29T07:29:21.779Z,75.25
2018-01-29T07:31:49.302Z,75.20
2018-01-29T07:34:16.947Z,75.43
2018-01-29T07:36:44.467Z,75.58
2018-01-29T07:39:12.048Z,75.71
2018-01-29T07:41:39.608Z,75.44
2018-01-29T07:44:07.111Z,75.36
2018-01-29T07:46:34.631Z,75.37
2018-01-29T07:49:02.159Z,75.47
2018-01-29T07:51:29.757Z,75.31
2018-01-29T07:53:57.286Z,75.12
2018-01-29T07:56:24.845Z,74.99
2018-01-29T07:58:52.419Z,74.86
2018-01-29T08:01:20.035Z,74.92
2018-01-29T08:03:47.519Z,75.09
2018-01-29T08:06:17.018Z,75.10
2018-01-29T08:08:44.625Z,75.03
2018-01-29T08:11:12.209Z,75.06
2018-01-29T08:13:39.806Z,74.95
2018-01-29T08:16:07.361Z,74.75
2018-01-29T08:18:34.993Z,74.78
2018-01-29T08:21:02.465Z,74.84
2018-01-29T08:23:29.974Z,74.69
2018-01-29T08:25:57.585Z,74.57
2018-01-29T08:28:25.137Z,74.66
2018-01-29T08:30:52.737Z,74.64
2018-01-29T08:33:20.241Z,74.59
2018-01-29T08:35:47.852Z,74.59
2018-01-29T08:38:15.488Z,74.55
2018-01-29T08:40:43.106Z,74.45
2018-01-29T08:43:10.721Z,74.46
2018-01-29T08:45:43.388Z,74.36
2018-01-29T08:48:10.943Z,74.47
2018-01-29T08:50:38.636Z,74.46
2018-01-29T08:53:06.361Z,74.41
2018-01-29T08:55:34.188Z,74.40
2018-01-29T08:58:01.760Z,74.20
2018-01-29T09:00:29.276Z,74.14
2018-01-29T09:02:57.028Z,74.19
2018-01-29T09:05:24.582Z,74.28
2018-01-29T09:07:52.128Z,74.31
2018-01-29T09:10:19.736Z,74.33
2018-01-29T09:12:47.374Z,74.18
2018-01-29T09:15:14.928Z,74.22
2018-01-29T09:17:42.567Z,74.29
2018-01-29T09:20:10.074Z,74.15
2018-01-29T09:22:37.681Z,74.22
2018-01-29T09:25:10.226Z,74.01
2018-01-29T09:27:39.887Z,73.95
2018-01-29T09:30:07.488Z,74.05
2018-01-29T09:32:35.726Z,73.94
2018-01-29T09:37:56.266Z,73.44
2018-01-29T09:40:23.884Z,73.24
2018-01-29T09:42:51.443Z,73.24
2018-01-29T09:45:18.965Z,72.94
2018-01-29T09:47:46.560Z,72.75
2018-01-29T09:50:14.066Z,72.55
2018-01-29T09:52:41.594Z,72.54
2018-01-29T09:58:02.117Z,72.05
2018-01-29T10:00:29.590Z,72.03
2018-01-29T10:02:57.216Z,71.92
2018-01-29T10:05:24.729Z,72.00
2018-01-29T10:07:52.251Z,71.90
2018-01-29T10:10:19.813Z,72.07
2018-01-29T10:12:47.288Z,71.82
2018-01-29T10:15:14.807Z,71.67
2018-01-29T10:17:42.316Z,72.14
2018-01-29T10:20:09.867Z,72.33
2018-01-29T10:22:37.415Z,72.05
2018-01-29T10:25:05.028Z,72.05
2018-01-29T10:27:32.580Z,71.94
2018-01-29T10:30:00.110Z,71.65
2018-01-29T10:32:27.618Z,71.72
2018-01-29T10:34:55.196Z,71.64
2018-01-29T10:37:22.660Z,71.46
2018-01-29T10:39:50.140Z,71.75
2018-01-29T10:42:17.674Z,71.89
2018-01-29T10:44:45.342Z,71.36
2018-01-29T10:47:12.816Z,71.47
2018-01-29T10:49:40.450Z,71.53
2018-01-29T10:52:08.090Z,71.41
2018-01-29T10:54:35.654Z,71.14
2018-01-29T10:57:03.200Z,70.78
2018-01-29T10:59:30.796Z,70.99
2018-01-29T11:02:03.742Z,71.04
2018-01-29T11:04:31.232Z,70.67
2018-01-29T11:06:58.758Z,70.51
2018-01-29T11:09:26.213Z,70.39
2018-01-29T11:11:53.806Z,70.17
2018-01-29T11:14:21.356Z,70.39
2018-01-29T11:16:48.919Z,70.74
2018-01-29T11:19:16.499Z,70.49
2018-01-29T11:21:43.991Z,70.20
2018-01-29T11:24:11.456Z,71.00
2018-01-29T11:26:39.091Z,69.90
2018-01-29T11:29:06.739Z,69.87
2018-01-29T11:31:34.309Z,69.89
2018-01-29T11:34:01.878Z,69.48
2018-01-29T11:36:29.436Z,69.58
2018-01-29T11:38:57.142Z,69.01
2018-01-29T11:41:24.714Z,69.48
2018-01-29T11:43:52.288Z,69.21
2018-01-29T11:46:19.982Z,68.81
2018-01-29T11:48:47.590Z,68.94
2018-01-29T11:51:15.096Z,68.76
2018-01-29T11:53:42.656Z,68.95
2018-01-29T11:56:10.236Z,68.65
2018-01-29T11:58:37.764Z,68.63
2018-01-29T12:01:05.582Z,68.53
2018-01-29T12:03:33.181Z,68.82
2018-01-29T12:06:00.659Z,68.96
2018-01-29T12:08:28.196Z,68.78
2018-01-29T12:10:55.821Z,68.44
2018-01-29T12:13:24.246Z,68.45
2018-01-29T12:15:51.795Z,68.31
2018-01-29T12:18:19.456Z,68.05
2018-01-29T12:20:47.099Z,68.12
2018-01-29T12:23:14.592Z,67.94
2018-01-29T12:25:42.102Z,67.92
2018-01-29T12:28:09.676Z,67.57
2018-01-29T12:30:37.160Z,67.64
2018-01-29T12:33:04.764Z,67.34
2018-01-29T12:35:32.227Z,67.39
2018-01-29T12:37:59.722Z,67.61
2018-01-29T12:40:27.183Z,67.27
2018-01-29T12:42:54.913Z,67.85
2018-01-29T12:45:22.470Z,67.72
2018-01-29T12:47:50.088Z,67.63
2018-01-29T12:50:17.565Z,66.90
2018-01-29T12:52:45.058Z,66.77
2018-01-29T12:55:12.545Z,66.82
2018-01-29T12:57:40.060Z,66.88
2018-01-29T13:00:08.399Z,67.07
2018-01-29T13:02:35.978Z,67.03
2018-01-29T13:05:03.962Z,67.02
2018-01-29T13:07:31.633Z,67.01
2018-01-29T13:10:00.094Z,66.98
2018-01-29T13:12:27.637Z,67.04
2018-01-29T13:14:55.172Z,67.30
2018-01-29T13:17:22.726Z,67.03
2018-01-29T13:19:50.258Z,66.95
2018-01-29T13:22:17.844Z,66.88
2018-01-29T13:24:45.448Z,67.18
2018-01-29T13:27:13.034Z,66.88
2018-01-29T13:29:40.718Z,66.57
2018-01-29T13:32:08.610Z,66.79
2018-01-29T13:34:55.653Z,66.91
2018-01-29T13:37:23.583Z,66.74
2018-01-29T13:39:51.178Z,67.11
2018-01-29T13:42:18.732Z,67.01
2018-01-29T13:44:46.251Z,67.07
2018-01-29T13:47:13.955Z,66.76
2018-01-29T13:49:41.530Z,66.73
2018-01-29T13:52:09.046Z,66.60
2018-01-29T13:54:36.572Z,66.92
2018-01-29T13:57:04.099Z,66.70
2018-01-29T13:59:31.561Z,66.52
2018-01-29T14:01:59.420Z,66.27
2018-01-29T14:04:26.922Z,66.86
2018-01-29T14:06:55.355Z,66.24
2018-01-29T14:09:22.899Z,66.33
2018-01-29T14:11:50.395Z,66.04
2018-01-29T14:14:18.883Z,66.16
2018-01-29T14:16:46.423Z,66.28
2018-01-29T14:19:14.006Z,66.56
2018-01-29T14:21:41.752Z,66.21
2018-01-29T14:24:09.299Z,66.37
2018-01-29T14:26:36.798Z,65.95
2018-01-29T14:29:04.429Z,66.12
2018-01-29T14:31:31.992Z,66.02
2018-01-29T14:33:59.565Z,66.08
2018-01-29T14:36:27.937Z,66.32
2018-01-29T14:38:55.500Z,65.91
2018-01-29T14:41:23.019Z,65.80
2018-01-29T14:43:50.603Z,65.60
2018-01-29T14:46:18.179Z,65.74
2018-01-29T14:48:46.431Z,65.73
2018-01-29T14:51:13.958Z,65.62
2018-01-29T14:53:41.493Z,66.00
2018-01-29T14:56:09.309Z,65.85
2018-01-29T14:58:36.911Z,65.52
2018-01-29T15:01:04.458Z,65.90
2018-01-29T15:03:31.938Z,65.76
2018-01-29T15:05:59.492Z,65.89
2018-01-29T15:08:27.116Z,65.90
2018-01-29T15:10:57.523Z,66.07
2018-01-29T15:13:25.217Z,66.11
2018-01-29T15:15:52.720Z,66.06
2018-01-29T15:18:20.217Z,66.01
2018-01-29T15:20:48.687Z,65.38
2018-01-29T15:23:16.191Z,65.67
2018-01-29T15:25:43.671Z,65.74
2018-01-29T15:28:11.217Z,65.79
2018-01-29T15:30:38.698Z,65.87
2018-01-29T15:33:06.215Z,65.73
2018-01-29T15:35:34.231Z,66.00
2018-01-29T15:38:01.762Z,66.20
2018-01-29T15:40:29.259Z,66.13
2018-01-29T15:42:56.742Z,65.44
2018-01-29T15:45:24.328Z,65.86
2018-01-29T15:47:51.802Z,65.67
2018-01-29T15:50:19.284Z,65.64
2018-01-29T15:52:46.828Z,65.68
2018-01-29T15:55:14.452Z,66.13
2018-01-29T15:57:41.913Z,66.00
2018-01-29T16:00:10.406Z,65.81
2018-01-29T16:02:37.967Z,65.87
2018-01-29T16:05:05.451Z,65.88
2018-01-29T16:07:32.972Z,65.84
2018-01-29T16:10:00.479Z,66.03
2018-01-29T16:12:27.991Z,66.45
2018-01-29T16:14:55.477Z,66.53
2018-01-29T16:17:22.981Z,66.14
2018-01-29T16:19:51.254Z,66.43
2018-01-29T16:22:18.774Z,66.23
2018-01-29T16:24:46.304Z,66.17
2018-01-29T16:27:13.769Z,66.23
2018-01-29T16:29:41.388Z,66.30
2018-01-29T16:32:08.887Z,66.10
2018-01-29T16:34:36.482Z,65.98
2018-01-29T16:37:03.947Z,66.25
2018-01-29T16:39:31.500Z,66.02
2018-01-29T16:41:59.086Z,66.27
2018-01-29T16:44:26.620Z,66.13
2018-01-29T16:46:54.213Z,66.36
2018-01-29T16:49:21.894Z,66.23
2018-01-29T16:51:49.575Z,65.99
2018-01-29T16:54:17.144Z,65.94
2018-01-29T16:56:44.683Z,65.91
2018-01-29T16:59:12.159Z,65.88
2018-01-29T17:01:39.694Z,66.11
2018-01-29T17:04:07.188Z,66.01
2018-01-29T17:06:34.714Z,66.09
2018-01-29T17:09:02.247Z,66.02
2018-01-29T17:11:29.749Z,66.03
2018-01-29T17:13:57.370Z,66.16
2018-01-29T17:16:24.931Z,65.98
2018-01-29T17:18:52.466Z,65.50
2018-01-29T17:21:19.985Z,65.33
2018-01-29T17:23:47.450Z,65.55
2018-01-29T17:26:14.957Z,65.54
2018-01-29T17:28:42.456Z,65.55
2018-01-29T17:31:09.961Z,65.57
2018-01-29T17:33:38.160Z,65.62
2018-01-29T17:36:05.747Z,65.70
2018-01-29T17:38:34.163Z,65.72
2018-01-29T17:41:01.678Z,65.66
2018-01-29T17:43:29.284Z,65.44
2018-01-29T17:45:56.779Z,65.49
2018-01-29T17:48:25.427Z,65.76
2018-01-29T17:50:52.982Z,65.70
2018-01-29T17:53:20.538Z,65.58
2018-01-29T17:55:48.019Z,65.48
2018-01-29T17:58:15.557Z,65.37
2018-01-29T18:00:43.084Z,65.19
2018-01-29T18:05:52.564Z,65.14
2018-01-29T18:08:20.131Z,65.36
2018-01-29T18:10:47.685Z,65.08
2018-01-29T18:13:15.322Z,64.97
2018-01-29T18:15:42.959Z,64.98
2018-01-29T18:18:10.479Z,65.02
2018-01-29T18:20:38.907Z,65.09
2018-01-29T18:23:06.754Z,65.26
2018-01-29T18:25:34.364Z,65.06
2018-01-29T18:28:01.922Z,65.19
2018-01-29T18:30:29.644Z,65.12
2018-01-29T18:32:57.228Z,65.09
2018-01-29T18:35:25.012Z,64.95
2018-01-29T18:37:52.562Z,64.92
2018-01-29T18:40:21.190Z,64.77
2018-01-29T18:42:48.717Z,64.96
2018-01-29T18:45:16.377Z,65.07
2018-01-29T18:47:43.930Z,65.09
2018-01-29T18:50:11.439Z,65.07
2018-01-29T18:52:38.924Z,64.99
2018-01-29T18:55:06.474Z,64.80
2018-01-29T18:57:34.021Z,64.62
2018-01-29T19:00:01.636Z,64.87
2018-01-29T19:02:29.978Z,64.78
2018-01-29T19:04:57.436Z,64.71
2018-01-29T19:07:25.154Z,64.56
2018-01-29T19:09:52.711Z,64.63
2018-01-29T19:12:20.308Z,64.55
2018-01-29T19:14:47.795Z,64.25
2018-01-29T19:17:15.339Z,64.07
2018-01-29T19:19:43.994Z,64.08
2018-01-29T19:22:11.508Z,64.17
2018-01-29T19:24:38.994Z,64.37
2018-01-29T19:27:08.462Z,64.44
2018-01-29T19:29:35.934Z,64.69
2018-01-29T19:32:03.546Z,64.80
2018-01-29T19:34:31.179Z,65.01
2018-01-29T19:36:58.777Z,65.19
2018-01-29T19:39:26.337Z,65.48
2018-01-29T19:41:53.886Z,65.64
2018-01-29T19:44:21.459Z,65.79
2018-01-29T19:46:48.972Z,66.04
2018-01-29T19:49:16.725Z,66.35
2018-01-29T19:51:44.280Z,66.64
2018-01-29T19:54:11.796Z,66.84
2018-01-29T19:56:40.155Z,67.15
2018-01-29T19:59:07.635Z,67.31
2018-01-29T20:01:35.339Z,67.27
2018-01-29T20:04:02.916Z,67.53
2018-01-29T20:06:30.491Z,67.55
2018-01-29T20:08:57.997Z,67.66
2018-01-29T20:11:25.538Z,67.77
2018-01-29T20:13:53.091Z,67.93
2018-01-29T20:16:20.640Z,68.14
2018-01-29T20:18:48.131Z,68.30
2018-01-29T20:21:15.682Z,68.41
2018-01-29T20:23:43.299Z,68.62
2018-01-29T20:26:10.824Z,68.70
2018-01-29T20:28:38.374Z,68.74
2018-01-29T20:31:05.878Z,68.81
2018-01-29T20:33:33.422Z,68.96
2018-01-29T20:36:00.987Z,69.12
2018-01-29T20:38:28.519Z,69.23
2018-01-29T20:40:56.211Z,69.24
2018-01-29T20:43:23.733Z,69.56
2018-01-29T20:45:51.272Z,69.61
2018-01-29T20:48:19.495Z,69.51
2018-01-29T20:50:46.960Z,69.31
2018-01-29T20:53:14.470Z,69.42
2018-01-29T20:55:41.928Z,69.43
2018-01-29T20:58:09.458Z,69.47
2018-01-29T21:00:36.995Z,69.50
2018-01-29T21:03:04.457Z,69.44
2018-01-29T21:05:31.980Z,69.60
2018-01-29T21:07:59.513Z,69.69
2018-01-29T21:10:27.107Z,69.73
2018-01-29T21:12:54.633Z,69.88
2018-01-29T21:15:22.304Z,70.10
2018-01-29T21:17:49.795Z,70.26
2018-01-29T21:20:17.263Z,70.41
2018-01-29T21:22:44.788Z,70.49
2018-01-29T21:25:12.305Z,70.61
2018-01-29T21:27:39.800Z,70.82
2018-01-29T21:30:07.316Z,71.23
2018-01-29T21:32:35.026Z,72.28
2018-01-29T21:35:16.882Z,72.97
2018-01-29T21:37:44.498Z,73.42
2018-01-29T21:40:12.466Z,73.92
2018-01-29T21:42:39.931Z,74.27
2018-01-29T21:45:07.436Z,74.99
2018-01-29T21:47:34.994Z,75.77
2018-01-29T21:50:02.524Z,77.10
2018-01-29T21:52:30.532Z,78.15
2018-01-29T21:54:58.243Z,79.16
2018-01-29T21:57:25.914Z,80.66
2018-01-29T21:59:53.440Z,81.74
2018-01-29T22:02:21.009Z,81.66
2018-01-29T22:04:48.534Z,81.06
2018-01-29T22:07:16.199Z,80.71
2018-01-29T22:09:43.744Z,79.76
2018-01-29T22:12:11.303Z,79.50
2018-01-29T22:14:38.838Z,78.47
2018-01-29T22:17:06.389Z,78.00
2018-01-29T22:19:33.955Z,78.35
2018-01-29T22:22:02.215Z,77.88
2018-01-29T22:24:29.752Z,78.49
2018-01-29T22:26:57.274Z,77.85
2018-01-29T22:29:24.994Z,78.26
2018-01-29T22:31:52.593Z,78.13
2018-01-29T22:34:20.075Z,78.17
2018-01-29T22:36:47.555Z,77.68
2018-01-29T22:39:15.128Z,78.44
2018-01-29T22:41:42.750Z,78.29
2018-01-29T22:44:10.259Z,78.38
2018-01-29T22:46:37.761Z,78.29
2018-01-29T22:49:05.268Z,78.16
2018-01-29T22:51:32.747Z,78.10
2018-01-29T22:54:00.253Z,78.22
2018-01-29T22:56:32.738Z,78.25
2018-01-29T22:59:00.249Z,77.26
2018-01-29T23:01:27.830Z,76.69
2018-01-29T23:03:55.290Z,76.36
2018-01-29T23:06:22.934Z,76.00
2018-01-29T23:08:50.541Z,75.25
2018-01-29T23:11:18.028Z,74.97
2018-01-29T23:13:45.626Z,74.31
2018-01-29T23:16:13.106Z,74.62
2018-01-29T23:18:40.651Z,74.27
2018-01-29T23:21:09.378Z,73.98
2018-01-29T23:23:37.116Z,73.96
2018-01-29T23:26:09.587Z,73.60
2018-01-29T23:28:37.159Z,73.59
2018-01-29T23:31:04.707Z,73.92
2018-01-29T23:33:32.205Z,73.52
2018-01-29T23:35:59.694Z,73.48
2018-01-29T23:38:27.312Z,72.83
2018-01-29T23:40:54.793Z,72.80
2018-01-29T23:43:22.454Z,71.77
2018-01-29T23:45:49.935Z,71.29
2018-01-29T23:48:17.432Z,71.51
2018-01-29T23:50:44.924Z,71.12
2018-01-29T23:53:12.459Z,71.50
2018-01-29T23:55:39.936Z,70.24
2018-01-29T23:58:07.390Z,69.59
